createdAt,value
2023-04-28T00:01:29.870Z,101423.88
2023-04-28T00:03:57.986Z,101427.56
2023-04-28T00:06:24.635Z,101414.47
2023-04-28T00:08:50.979Z,101416.25
2023-04-28T00:11:17.349Z,101422.38
2023-04-28T00:13:43.694Z,101412.94
2023-04-28T00:16:10.088Z,101420.56
2023-04-28T00:18:36.541Z,101431.31
2023-04-28T00:21:02.913Z,101422.56
2023-04-28T00:23:29.318Z,101422.38
2023-04-28T00:25:57.358Z,101417.19
2023-04-28T00:28:33.427Z,101413.16
2023-04-28T00:31:01.253Z,101413.38
2023-04-28T00:33:27.631Z,101416.19
2023-04-28T00:36:01.107Z,101415.47
2023-04-28T00:38:27.667Z,101413.88
2023-04-28T00:40:54.063Z,101404.69
2023-04-28T00:43:20.494Z,101405.16
2023-04-28T00:45:46.904Z,101404.38
2023-04-28T00:48:14.061Z,101397.69
2023-04-28T00:50:40.541Z,101400.84
2023-04-28T00:53:07.012Z,101396.16
2023-04-28T00:55:35.336Z,101399.06
2023-04-28T00:58:02.560Z,101397.19
2023-04-28T01:00:28.946Z,101395.88
2023-04-28T01:02:56.981Z,101394.97
2023-04-28T01:05:26.909Z,101388.38
2023-04-28T01:07:53.284Z,101389.25
2023-04-28T01:10:19.888Z,101394.22
2023-04-28T01:12:46.265Z,101389.16
2023-04-28T01:15:19.904Z,101384.66
2023-04-28T01:17:47.611Z,101377.94
2023-04-28T01:20:14.780Z,101380.75
2023-04-28T01:22:41.477Z,101370.34
2023-04-28T01:25:08.184Z,101373.53
2023-04-28T01:27:34.571Z,101371.44
2023-04-28T01:30:00.919Z,101372.34
2023-04-28T01:32:27.315Z,101373.53
2023-04-28T01:34:53.701Z,101368.63
2023-04-28T01:37:20.169Z,101367.75
2023-04-28T01:39:46.533Z,101361.34
2023-04-28T01:42:12.902Z,101360.66
2023-04-28T01:44:39.466Z,101357.84
2023-04-28T01:50:52.616Z,101355.75
2023-04-28T01:53:20.636Z,101352.03
2023-04-28T01:55:47.931Z,101354.84
2023-04-28T01:58:14.539Z,101354.03
2023-04-28T02:00:40.902Z,101343.81
2023-04-28T02:03:07.318Z,101345.13
2023-04-28T02:05:33.777Z,101356.63
2023-04-28T02:08:00.155Z,101354.63
2023-04-28T02:10:26.522Z,101348.44
2023-04-28T02:12:52.904Z,101345.72
2023-04-28T02:15:19.514Z,101344.53
2023-04-28T02:17:46.008Z,101351.50
2023-04-28T02:20:14.257Z,101351.63
2023-04-28T02:22:41.290Z,101354.31
2023-04-28T02:25:08.488Z,101348.75
2023-04-28T02:27:36.716Z,101341.75
2023-04-28T02:30:05.357Z,101340.03
2023-04-28T02:32:32.390Z,101339.03
2023-04-28T02:34:58.962Z,101340.81
2023-04-28T02:37:25.411Z,101337.72
2023-04-28T02:39:51.764Z,101334.31
2023-04-28T02:42:18.128Z,101340.16
2023-04-28T02:44:44.464Z,101344.75
2023-04-28T02:47:11.004Z,101334.44
2023-04-28T02:49:37.476Z,101330.22
2023-04-28T02:52:03.927Z,101334.72
2023-04-28T02:54:30.743Z,101334.81
2023-04-28T02:56:58.233Z,101334.44
2023-04-28T02:59:25.375Z,101321.72
2023-04-28T03:01:54.356Z,101329.13
2023-04-28T03:04:21.052Z,101331.50
2023-04-28T03:06:47.904Z,101320.63
2023-04-28T03:09:14.687Z,101323.50
2023-04-28T03:11:41.347Z,101323.91
2023-04-28T03:14:07.713Z,101326.69
2023-04-28T03:16:34.111Z,101321.31
2023-04-28T03:19:00.744Z,101317.03
2023-04-28T03:21:27.795Z,101313.22
2023-04-28T03:23:54.242Z,101317.72
2023-04-28T03:26:20.893Z,101321.75
2023-04-28T03:28:47.452Z,101323.00
2023-04-28T03:31:13.824Z,101318.06
2023-04-28T03:33:45.488Z,101313.06
2023-04-28T03:36:11.879Z,101299.31
2023-04-28T03:38:38.744Z,101312.81
2023-04-28T03:41:05.109Z,101302.63
2023-04-28T03:43:33.092Z,101298.22
2023-04-28T03:45:59.498Z,101307.63
2023-04-28T03:48:26.019Z,101300.72
2023-04-28T03:50:52.483Z,101302.09
2023-04-28T03:53:18.850Z,101301.63
2023-04-28T03:55:45.534Z,101303.13
2023-04-28T03:58:11.904Z,101298.31
2023-04-28T04:00:38.325Z,101292.69
2023-04-28T04:03:04.774Z,101295.41
2023-04-28T04:05:31.341Z,101282.22
2023-04-28T04:07:58.163Z,101287.72
2023-04-28T04:10:24.519Z,101290.94
2023-04-28T04:12:51.028Z,101290.31
2023-04-28T04:15:17.404Z,101285.59
2023-04-28T04:17:44.129Z,101283.81
2023-04-28T04:20:10.831Z,101281.41
2023-04-28T04:22:37.209Z,101283.22
2023-04-28T04:25:03.729Z,101281.63
2023-04-28T04:27:30.126Z,101285.09
2023-04-28T04:29:56.479Z,101284.06
2023-04-28T04:32:22.917Z,101280.75
2023-04-28T04:34:49.297Z,101275.41
2023-04-28T04:37:15.676Z,101275.38
2023-04-28T04:39:42.026Z,101273.47
2023-04-28T04:42:23.433Z,101269.25
2023-04-28T04:44:51.012Z,101265.28
2023-04-28T04:47:17.365Z,101268.75
2023-04-28T04:49:44.299Z,101272.81
2023-04-28T04:52:10.674Z,101270.94
2023-04-28T04:54:37.034Z,101264.97
2023-04-28T04:57:03.487Z,101273.91
2023-04-28T04:59:29.983Z,101272.03
2023-04-28T05:01:56.737Z,101260.56
2023-04-28T05:04:23.488Z,101261.19
2023-04-28T05:06:50.006Z,101253.38
2023-04-28T05:09:16.352Z,101259.03
2023-04-28T05:11:42.714Z,101260.56
2023-04-28T05:14:09.088Z,101251.53
2023-04-28T05:16:36.017Z,101249.69
2023-04-28T05:19:02.436Z,101246.56
2023-04-28T05:21:28.828Z,101247.75
2023-04-28T05:23:55.938Z,101238.41
2023-04-28T05:26:22.629Z,101244.34
2023-04-28T05:28:49.206Z,101246.50
2023-04-28T05:31:16.516Z,101236.16
2023-04-28T05:33:42.914Z,101242.47
2023-04-28T05:36:09.506Z,101238.94
2023-04-28T05:38:36.053Z,101238.50
2023-04-28T05:41:02.582Z,101244.72
2023-04-28T05:43:29.122Z,101233.81
2023-04-28T05:45:55.552Z,101230.94
2023-04-28T05:48:21.943Z,101228.00
2023-04-28T05:50:48.484Z,101217.72
2023-04-28T05:53:14.852Z,101228.13
2023-04-28T05:55:41.258Z,101217.91
2023-04-28T05:58:08.081Z,101218.69
2023-04-28T06:00:34.553Z,101216.47
2023-04-28T06:03:01.219Z,101213.63
2023-04-28T06:05:28.306Z,101217.72
2023-04-28T06:07:56.115Z,101210.63
2023-04-28T06:10:23.502Z,101211.97
2023-04-28T06:12:49.872Z,101204.69
2023-04-28T06:15:16.426Z,101198.16
2023-04-28T06:17:42.847Z,101206.81
2023-04-28T06:20:11.150Z,101197.16
2023-04-28T06:22:37.622Z,101200.16
2023-04-28T06:25:04.266Z,101203.13
2023-04-28T06:27:32.795Z,101193.88
2023-04-28T06:29:59.624Z,101190.06
2023-04-28T06:32:26.385Z,101195.03
2023-04-28T06:34:52.790Z,101190.06
2023-04-28T06:37:19.162Z,101188.44
2023-04-28T06:39:45.529Z,101191.28
2023-04-28T06:42:11.884Z,101184.75
2023-04-28T06:44:38.250Z,101188.91
2023-04-28T06:47:04.766Z,101189.16
2023-04-28T06:49:31.244Z,101180.09
2023-04-28T06:51:57.650Z,101175.94
2023-04-28T06:54:24.016Z,101176.16
2023-04-28T06:56:50.391Z,101175.34
2023-04-28T06:59:16.809Z,101165.94
2023-04-28T07:01:43.326Z,101165.38
2023-04-28T07:04:10.029Z,101164.69
2023-04-28T07:06:37.031Z,101158.06
2023-04-28T07:09:04.531Z,101161.94
2023-04-28T07:11:33.364Z,101158.16
2023-04-28T07:13:59.807Z,101155.13
2023-04-28T07:16:26.696Z,101152.31
2023-04-28T07:18:53.193Z,101144.75
2023-04-28T07:21:22.170Z,101140.81
2023-04-28T07:23:49.033Z,101131.66
2023-04-28T07:26:16.436Z,101136.97
2023-04-28T07:28:44.417Z,101140.91
2023-04-28T07:31:11.278Z,101136.97
2023-04-28T07:33:37.669Z,101129.34
2023-04-28T07:36:04.404Z,101128.22
2023-04-28T07:38:30.754Z,101120.91
2023-04-28T07:40:57.315Z,101118.06
2023-04-28T07:43:23.810Z,101114.47
2023-04-28T07:45:50.225Z,101111.28
2023-04-28T07:48:16.841Z,101115.59
2023-04-28T07:50:43.307Z,101109.38
2023-04-28T07:53:09.667Z,101104.28
2023-04-28T07:55:36.541Z,101105.41
2023-04-28T07:58:03.971Z,101102.50
2023-04-28T08:00:30.402Z,101107.69
2023-04-28T08:02:57.788Z,101104.50
2023-04-28T08:05:24.544Z,101101.44
2023-04-28T08:07:51.067Z,101102.91
2023-04-28T08:10:17.500Z,101101.00
2023-04-28T08:12:45.260Z,101109.75
2023-04-28T08:15:12.147Z,101104.38
2023-04-28T08:17:38.972Z,101100.44
2023-04-28T08:20:06.818Z,101095.00
2023-04-28T08:22:33.834Z,101093.88
2023-04-28T08:25:00.863Z,101096.38
2023-04-28T08:27:27.689Z,101099.22
2023-04-28T08:29:54.051Z,101087.91
2023-04-28T08:32:20.427Z,101088.88
2023-04-28T08:34:46.797Z,101083.22
2023-04-28T08:37:13.495Z,101083.53
2023-04-28T08:39:39.889Z,101074.44
2023-04-28T08:42:06.384Z,101079.88
2023-04-28T08:44:38.586Z,101084.78
2023-04-28T08:47:12.970Z,101067.75
2023-04-28T08:49:40.428Z,101064.56
2023-04-28T08:52:11.744Z,101070.91
2023-04-28T08:54:40.648Z,101070.69
2023-04-28T08:57:09.953Z,101062.91
2023-04-28T08:59:41.292Z,101059.91
2023-04-28T09:02:08.986Z,101064.19
2023-04-28T09:04:35.705Z,101042.63
2023-04-28T09:07:02.437Z,101048.56
2023-04-28T09:09:32.602Z,101044.09
2023-04-28T09:12:02.520Z,101041.22
2023-04-28T09:14:31.092Z,101040.38
2023-04-28T09:16:57.577Z,101040.38
2023-04-28T09:19:30.727Z,101033.16
2023-04-28T09:21:57.643Z,101028.38
2023-04-28T09:24:40.492Z,101013.38
2023-04-28T09:27:10.775Z,101018.22
2023-04-28T09:29:38.281Z,101014.25
2023-04-28T09:32:13.901Z,101019.47
2023-04-28T09:34:48.694Z,101013.38
2023-04-28T09:37:20.237Z,101005.63
2023-04-28T09:39:51.460Z,101002.34
2023-04-28T09:42:38.456Z,100995.06
2023-04-28T09:45:13.557Z,100995.88
2023-04-28T09:47:41.902Z,101000.50
2023-04-28T09:50:12.791Z,100994.59
2023-04-28T09:52:41.342Z,100982.81
2023-04-28T09:55:12.110Z,100990.38
2023-04-28T09:57:39.465Z,100990.56
2023-04-28T10:00:09.070Z,100990.94
2023-04-28T10:05:11.542Z,100983.34
2023-04-28T10:07:39.230Z,100984.25
2023-04-28T10:10:07.437Z,100981.38
2023-04-28T10:12:34.739Z,100972.00
2023-04-28T10:15:01.883Z,100978.16
2023-04-28T10:17:29.815Z,100968.47
2023-04-28T10:19:57.182Z,100965.13
2023-04-28T10:22:35.282Z,100960.66
2023-04-28T10:25:11.729Z,100968.56
2023-04-28T10:27:43.857Z,100950.25
2023-04-28T10:30:25.830Z,100953.53
2023-04-28T10:33:06.693Z,100943.19
2023-04-28T10:35:36.185Z,100939.00
2023-04-28T10:38:10.494Z,100937.44
2023-04-28T10:40:38.638Z,100936.59
2023-04-28T10:43:41.844Z,100931.25
2023-04-28T10:46:09.531Z,100931.22
2023-04-28T10:48:48.305Z,100929.19
2023-04-28T10:51:14.789Z,100919.03
2023-04-28T10:53:51.197Z,100928.25
2023-04-28T10:56:27.128Z,100920.38
2023-04-28T10:59:00.230Z,100912.53
2023-04-28T11:01:34.819Z,100900.28
2023-04-28T11:04:15.793Z,100906.38
2023-04-28T11:06:43.566Z,100906.53
2023-04-28T11:09:13.927Z,100908.09
2023-04-28T11:12:00.866Z,100905.25
2023-04-28T11:14:35.885Z,100907.34
2023-04-28T11:17:08.337Z,100899.31
2023-04-28T11:19:37.614Z,100896.06
2023-04-28T11:22:11.622Z,100904.16
2023-04-28T11:24:38.142Z,100891.00
2023-04-28T11:27:05.015Z,100898.81
2023-04-28T11:29:36.626Z,100895.91
2023-04-28T11:32:08.075Z,100892.81
2023-04-28T11:34:35.068Z,100890.03
2023-04-28T11:37:01.885Z,100890.38
2023-04-28T11:39:33.144Z,100889.34
2023-04-28T11:42:02.214Z,100886.72
2023-04-28T11:44:30.607Z,100890.59
2023-04-28T11:47:03.178Z,100881.59
2023-04-28T11:49:31.617Z,100883.00
2023-04-28T11:52:00.270Z,100883.00
2023-04-28T11:54:28.988Z,100871.41
2023-04-28T11:56:57.496Z,100876.28
2023-04-28T11:59:29.065Z,100869.00
2023-04-28T12:01:59.296Z,100873.16
2023-04-28T12:04:37.808Z,100872.03
2023-04-28T12:07:15.753Z,100863.84
2023-04-28T12:09:48.123Z,100867.56
2023-04-28T12:12:40.073Z,100860.72
2023-04-28T12:15:14.102Z,100862.47
2023-04-28T12:17:42.259Z,100862.19
2023-04-28T12:20:11.691Z,100851.88
2023-04-28T12:22:46.796Z,100849.13
2023-04-28T12:25:16.456Z,100850.91
2023-04-28T12:28:02.713Z,100848.47
2023-04-28T12:30:31.879Z,100846.22
2023-04-28T12:32:58.415Z,100849.88
2023-04-28T12:35:26.243Z,100839.50
2023-04-28T12:37:53.702Z,100827.22
2023-04-28T12:40:20.105Z,100838.06
2023-04-28T12:42:46.647Z,100832.84
2023-04-28T12:45:13.154Z,100824.31
2023-04-28T12:47:39.758Z,100831.06
2023-04-28T12:50:06.776Z,100820.94
2023-04-28T12:52:34.642Z,100827.75
2023-04-28T12:55:01.235Z,100822.16
2023-04-28T12:57:28.797Z,100819.56
2023-04-28T12:59:56.656Z,100820.31
2023-04-28T13:02:23.688Z,100808.47
2023-04-28T13:04:51.864Z,100803.88
2023-04-28T13:07:18.572Z,100798.84
2023-04-28T13:09:45.563Z,100800.66
2023-04-28T13:12:12.439Z,100808.44
2023-04-28T13:14:39.392Z,100806.31
2023-04-28T13:17:05.924Z,100805.94
2023-04-28T13:19:34.469Z,100798.81
2023-04-28T13:22:03.055Z,100796.78
2023-04-28T13:24:29.848Z,100787.25
2023-04-28T13:26:56.238Z,100785.31
2023-04-28T13:29:22.599Z,100788.59
2023-04-28T13:31:48.999Z,100776.69
2023-04-28T13:34:18.904Z,100770.47
2023-04-28T13:36:45.567Z,100768.81
2023-04-28T13:39:14.123Z,100775.75
2023-04-28T13:41:40.529Z,100772.16
2023-04-28T13:44:08.466Z,100772.03
2023-04-28T13:46:34.881Z,100767.78
2023-04-28T13:49:01.639Z,100772.00
2023-04-28T13:51:28.724Z,100775.72
2023-04-28T13:53:55.117Z,100769.59
2023-04-28T13:56:21.571Z,100767.59
2023-04-28T13:58:47.994Z,100768.44
2023-04-28T14:01:14.627Z,100771.69
2023-04-28T14:03:41.453Z,100761.44
2023-04-28T14:06:08.294Z,100766.53
2023-04-28T14:08:34.766Z,100757.34
2023-04-28T14:11:01.336Z,100760.84
2023-04-28T14:13:27.779Z,100768.84
2023-04-28T14:15:59.691Z,100754.16
2023-04-28T14:18:27.070Z,100759.75
2023-04-28T14:20:54.598Z,100757.09
2023-04-28T14:23:22.585Z,100757.91
2023-04-28T14:25:49.183Z,100757.19
2023-04-28T14:28:16.187Z,100747.28
2023-04-28T14:30:42.668Z,100750.88
2023-04-28T14:33:09.114Z,100750.94
2023-04-28T14:35:35.739Z,100744.03
2023-04-28T14:38:03.616Z,100748.09
2023-04-28T14:40:30.079Z,100740.53
2023-04-28T14:42:56.490Z,100737.59
2023-04-28T14:45:22.922Z,100731.56
2023-04-28T14:47:49.704Z,100736.84
2023-04-28T14:50:16.780Z,100732.59
2023-04-28T14:52:43.195Z,100737.97
2023-04-28T14:55:10.167Z,100734.34
2023-04-28T14:57:37.682Z,100722.50
2023-04-28T15:00:04.931Z,100721.63
2023-04-28T15:02:31.488Z,100711.38
2023-04-28T15:04:58.498Z,100715.84
2023-04-28T15:07:30.984Z,100703.56
2023-04-28T15:09:59.356Z,100704.91
2023-04-28T15:12:26.007Z,100703.28
2023-04-28T15:14:53.689Z,100704.63
2023-04-28T15:17:21.170Z,100708.09
2023-04-28T15:19:47.712Z,100699.13
2023-04-28T15:22:14.149Z,100710.00
2023-04-28T15:24:40.588Z,100708.66
2023-04-28T15:27:06.990Z,100709.44
2023-04-28T15:29:33.424Z,100704.94
2023-04-28T15:31:59.984Z,100693.50
2023-04-28T15:34:26.523Z,100701.41
2023-04-28T15:36:53.805Z,100694.81
2023-04-28T15:39:20.408Z,100692.63
2023-04-28T15:41:47.193Z,100690.91
2023-04-28T15:44:13.721Z,100688.34
2023-04-28T15:46:40.356Z,100698.38
2023-04-28T15:49:06.750Z,100696.91
2023-04-28T15:51:33.329Z,100698.81
2023-04-28T15:54:00.293Z,100686.41
2023-04-28T15:56:26.701Z,100690.63
2023-04-28T15:58:53.342Z,100681.72
2023-04-28T16:01:21.009Z,100688.72
2023-04-28T16:03:48.357Z,100695.28
2023-04-28T16:06:14.958Z,100685.91
2023-04-28T16:08:41.320Z,100683.44
2023-04-28T16:11:10.223Z,100688.97
2023-04-28T16:13:37.170Z,100686.69
2023-04-28T16:16:04.275Z,100684.13
2023-04-28T16:18:30.830Z,100682.16
2023-04-28T16:20:57.521Z,100678.22
2023-04-28T16:23:23.923Z,100683.84
2023-04-28T16:25:51.044Z,100682.22
2023-04-28T16:28:17.678Z,100682.03
2023-04-28T16:30:44.072Z,100683.84
2023-04-28T16:33:10.675Z,100686.16
2023-04-28T16:35:37.214Z,100680.72
2023-04-28T16:38:03.877Z,100682.16
2023-04-28T16:40:30.612Z,100687.78
2023-04-28T16:42:57.388Z,100680.34
2023-04-28T16:45:23.871Z,100674.22
2023-04-28T16:47:50.326Z,100674.72
2023-04-28T16:50:17.312Z,100674.66
2023-04-28T16:52:43.677Z,100668.66
2023-04-28T16:55:10.826Z,100670.44
2023-04-28T16:57:37.497Z,100667.66
2023-04-28T17:00:06.153Z,100662.94
2023-04-28T17:02:33.446Z,100663.94
2023-04-28T17:05:00.351Z,100664.13
2023-04-28T17:07:26.778Z,100655.81
2023-04-28T17:09:53.342Z,100662.84
2023-04-28T17:12:20.964Z,100666.47
2023-04-28T17:14:47.528Z,100654.16
2023-04-28T17:17:13.930Z,100660.13
2023-04-28T17:19:41.613Z,100660.25
2023-04-28T17:22:08.311Z,100658.00
2023-04-28T17:24:34.855Z,100657.53
2023-04-28T17:27:01.249Z,100655.72
2023-04-28T17:29:27.758Z,100663.38
2023-04-28T17:31:54.493Z,100655.72
2023-04-28T17:34:21.005Z,100646.19
2023-04-28T17:36:47.396Z,100647.72
2023-04-28T17:39:16.123Z,100649.94
2023-04-28T17:41:43.048Z,100652.09
2023-04-28T17:44:09.420Z,100664.00
2023-04-28T17:46:36.522Z,100661.63
2023-04-28T17:49:02.931Z,100653.94
2023-04-28T17:51:29.428Z,100665.28
2023-04-28T17:53:58.738Z,100661.19
2023-04-28T17:56:25.116Z,100663.19
2023-04-28T17:58:51.708Z,100669.06
2023-04-28T18:01:18.229Z,100665.44
2023-04-28T18:03:44.652Z,100669.91
2023-04-28T18:06:11.377Z,100665.91
2023-04-28T18:08:38.396Z,100663.16
2023-04-28T18:11:05.094Z,100660.03
2023-04-28T18:13:32.986Z,100661.31
2023-04-28T18:16:00.474Z,100660.47
2023-04-28T18:18:29.801Z,100651.31
2023-04-28T18:20:58.727Z,100655.16
2023-04-28T18:23:26.520Z,100651.50
2023-04-28T18:25:52.909Z,100650.78
2023-04-28T18:28:19.318Z,100646.56
2023-04-28T18:30:45.644Z,100648.03
2023-04-28T18:33:12.120Z,100641.91
2023-04-28T18:35:38.637Z,100636.13
2023-04-28T18:38:06.023Z,100643.38
2023-04-28T18:40:34.092Z,100638.97
2023-04-28T18:43:01.968Z,100637.41
2023-04-28T18:45:34.348Z,100642.41
2023-04-28T18:48:02.303Z,100637.09
2023-04-28T18:50:29.580Z,100636.16
2023-04-28T18:52:56.437Z,100637.28
2023-04-28T18:55:22.945Z,100645.63
2023-04-28T18:57:49.847Z,100646.94
2023-04-28T19:00:16.449Z,100641.28
2023-04-28T19:02:44.505Z,100638.34
2023-04-28T19:05:14.519Z,100638.41
2023-04-28T19:07:42.031Z,100636.38
2023-04-28T19:10:08.880Z,100638.00
2023-04-28T19:12:35.328Z,100639.59
2023-04-28T19:15:02.079Z,100632.47
2023-04-28T19:17:28.652Z,100634.59
2023-04-28T19:19:56.255Z,100640.75
2023-04-28T19:22:34.977Z,100630.75
2023-04-28T19:25:02.092Z,100625.91
2023-04-28T19:27:32.884Z,100620.88
2023-04-28T19:30:00.129Z,100620.03
2023-04-28T19:32:27.127Z,100625.16
2023-04-28T19:34:53.525Z,100621.69
2023-04-28T19:37:20.281Z,100620.06
2023-04-28T19:39:47.584Z,100623.44
2023-04-28T19:42:14.107Z,100631.88
2023-04-28T19:44:40.481Z,100622.88
2023-04-28T19:47:07.441Z,100619.09
2023-04-28T19:49:34.556Z,100629.00
2023-04-28T19:52:01.223Z,100624.53
2023-04-28T19:54:27.698Z,100629.50
2023-04-28T19:56:54.350Z,100628.22
2023-04-28T19:59:20.814Z,100625.94
2023-04-28T20:01:47.250Z,100627.31
2023-04-28T20:04:13.843Z,100629.16
2023-04-28T20:06:40.878Z,100625.25
2023-04-28T20:09:09.003Z,100628.28
2023-04-28T20:11:35.575Z,100625.78
2023-04-28T20:14:02.001Z,100632.63
2023-04-28T20:16:28.592Z,100623.34
2023-04-28T20:18:55.028Z,100617.69
2023-04-28T20:21:21.409Z,100624.81
2023-04-28T20:23:47.840Z,100616.94
2023-04-28T20:26:15.441Z,100619.72
2023-04-28T20:28:45.073Z,100616.47
2023-04-28T20:31:11.543Z,100608.06
2023-04-28T20:33:37.968Z,100610.25
2023-04-28T20:36:05.524Z,100600.91
2023-04-28T20:38:31.905Z,100592.19
2023-04-28T20:40:59.227Z,100594.31
2023-04-28T20:43:29.126Z,100595.47
2023-04-28T20:45:55.709Z,100584.94
2023-04-28T20:48:22.102Z,100589.44
2023-04-28T20:50:52.627Z,100582.03
2023-04-28T20:53:19.017Z,100584.78
2023-04-28T20:55:45.637Z,100578.06
2023-04-28T20:58:12.009Z,100580.13
2023-04-28T21:00:40.487Z,100580.88
2023-04-28T21:03:07.347Z,100574.97
2023-04-28T21:05:33.908Z,100568.25
2023-04-28T21:08:00.304Z,100572.34
2023-04-28T21:10:27.838Z,100567.16
2023-04-28T21:12:54.239Z,100564.06
2023-04-28T21:15:20.693Z,100569.84
2023-04-28T21:17:47.153Z,100558.00
2023-04-28T21:20:14.691Z,100561.75
2023-04-28T21:22:41.289Z,100560.53
2023-04-28T21:25:08.646Z,100555.25
2023-04-28T21:27:35.092Z,100555.03
2023-04-28T21:32:28.198Z,100558.91
2023-04-28T21:34:54.590Z,100551.59
2023-04-28T21:37:20.977Z,100553.22
2023-04-28T21:39:47.345Z,100552.31
2023-04-28T21:42:13.758Z,100548.34
2023-04-28T21:44:40.315Z,100550.59
2023-04-28T21:47:06.892Z,100549.38
2023-04-28T21:49:33.256Z,100552.31
2023-04-28T21:51:59.623Z,100540.22
2023-04-28T21:54:25.996Z,100542.22
2023-04-28T21:56:52.556Z,100551.31
2023-04-28T21:59:18.968Z,100542.03
2023-04-28T22:01:45.528Z,100536.75
2023-04-28T22:04:12.152Z,100544.63
2023-04-28T22:06:39.060Z,100547.50
2023-04-28T22:09:05.439Z,100540.81
2023-04-28T22:11:32.218Z,100544.78
2023-04-28T22:13:58.583Z,100535.47
2023-04-28T22:16:24.999Z,100527.94
2023-04-28T22:18:51.391Z,100527.81
2023-04-28T22:21:19.023Z,100530.56
2023-04-28T22:23:45.435Z,100520.41
2023-04-28T22:26:11.809Z,100528.31
2023-04-28T22:28:38.197Z,100525.22
2023-04-28T22:31:04.602Z,100521.97
2023-04-28T22:33:31.126Z,100523.28
2023-04-28T22:35:57.590Z,100511.56
2023-04-28T22:38:23.982Z,100514.50
2023-04-28T22:40:50.330Z,100506.00
2023-04-28T22:43:16.715Z,100511.13
2023-04-28T22:45:45.852Z,100509.41
2023-04-28T22:48:13.641Z,100508.69
2023-04-28T22:50:40.526Z,100502.78
2023-04-28T22:53:06.905Z,100501.34
2023-04-28T22:55:33.264Z,100500.91
2023-04-28T22:57:59.647Z,100500.59
2023-04-28T23:00:26.010Z,100502.06
2023-04-28T23:02:52.427Z,100503.91
2023-04-28T23:05:18.887Z,100500.53
2023-04-28T23:07:45.258Z,100488.56
2023-04-28T23:10:14.264Z,100491.16
2023-04-28T23:12:41.002Z,100483.09
2023-04-28T23:15:07.661Z,100489.63
2023-04-28T23:17:34.042Z,100485.03
2023-04-28T23:20:00.477Z,100482.16
2023-04-28T23:22:26.860Z,100487.09
2023-04-28T23:24:53.249Z,100484.63
2023-04-28T23:27:19.657Z,100479.63
2023-04-28T23:29:46.011Z,100475.22
2023-04-28T23:32:12.710Z,100473.03
2023-04-28T23:34:41.676Z,100470.03
2023-04-28T23:37:08.155Z,100466.25
2023-04-28T23:39:34.535Z,100467.31
2023-04-28T23:42:02.277Z,100456.38
2023-04-28T23:44:28.678Z,100461.56
2023-04-28T23:46:56.221Z,100453.75
2023-04-28T23:49:23.067Z,100446.47
2023-04-28T23:51:49.495Z,100458.59
2023-04-28T23:54:15.849Z,100456.94
2023-04-28T23:56:42.208Z,100450.84
